sensor_id;sensor_type;location;lat;lon;timestamp;pressure;altitude;pressure_sealevel;temperature;humidity
53246;BME280;39569;51.090;-1.786;2024-03-06T00:02:22;101197.22;;;11.47;49.77
53246;BME280;39569;51.090;-1.786;2024-03-06T00:04:50;101196.88;;;11.58;49.74
53246;BME280;39569;51.090;-1.786;2024-03-06T00:07:17;101194.38;;;11.41;49.73
53246;BME280;39569;51.090;-1.786;2024-03-06T00:09:44;101199.41;;;11.36;49.54
53246;BME280;39569;51.090;-1.786;2024-03-06T00:12:11;101199.75;;;11.33;50.01
53246;BME280;39569;51.090;-1.786;2024-03-06T00:14:37;101192.88;;;11.30;49.87
53246;BME280;39569;51.090;-1.786;2024-03-06T00:17:04;101193.22;;;11.35;50.02
53246;BME280;39569;51.090;-1.786;2024-03-06T00:19:32;101199.06;;;11.31;49.93
53246;BME280;39569;51.090;-1.786;2024-03-06T00:22:00;101204.41;;;11.39;49.73
53246;BME280;39569;51.090;-1.786;2024-03-06T00:24:28;101199.06;;;11.31;49.95
53246;BME280;39569;51.090;-1.786;2024-03-06T00:26:54;101200.41;;;11.27;49.55
53246;BME280;39569;51.090;-1.786;2024-03-06T00:29:21;101207.09;;;11.23;49.42
53246;BME280;39569;51.090;-1.786;2024-03-06T00:31:48;101211.75;;;11.13;49.61
53246;BME280;39569;51.090;-1.786;2024-03-06T00:34:15;101212.25;;;11.08;49.58
53246;BME280;39569;51.090;-1.786;2024-03-06T00:36:43;101213.44;;;11.22;49.60
53246;BME280;39569;51.090;-1.786;2024-03-06T00:39:11;101213.59;;;11.20;49.68
53246;BME280;39569;51.090;-1.786;2024-03-06T00:41:39;101214.09;;;11.08;49.45
53246;BME280;39569;51.090;-1.786;2024-03-06T00:44:06;101208.91;;;10.90;49.79
53246;BME280;39569;51.090;-1.786;2024-03-06T00:46:33;101208.91;;;11.06;49.43
53246;BME280;39569;51.090;-1.786;2024-03-06T00:49:00;101215.09;;;11.07;49.54
53246;BME280;39569;51.090;-1.786;2024-03-06T00:51:26;101212.59;;;10.97;49.66
53246;BME280;39569;51.090;-1.786;2024-03-06T00:53:53;101216.59;;;11.01;49.51
53246;BME280;39569;51.090;-1.786;2024-03-06T00:56:21;101214.13;;;11.16;49.37
53246;BME280;39569;51.090;-1.786;2024-03-06T00:58:48;101209.91;;;10.97;49.60
53246;BME280;39569;51.090;-1.786;2024-03-06T01:01:15;101206.06;;;11.08;49.61
53246;BME280;39569;51.090;-1.786;2024-03-06T01:03:42;101206.38;;;10.88;50.11
53246;BME280;39569;51.090;-1.786;2024-03-06T01:06:09;101204.72;;;10.87;50.03
53246;BME280;39569;51.090;-1.786;2024-03-06T01:08:36;101211.22;;;10.85;49.88
53246;BME280;39569;51.090;-1.786;2024-03-06T01:11:03;101211.22;;;10.85;49.85
53246;BME280;39569;51.090;-1.786;2024-03-06T01:13:31;101213.75;;;11.03;49.47
53246;BME280;39569;51.090;-1.786;2024-03-06T01:15:57;101214.22;;;10.82;49.95
53246;BME280;39569;51.090;-1.786;2024-03-06T01:18:24;101219.56;;;10.82;49.92
53246;BME280;39569;51.090;-1.786;2024-03-06T01:20:51;101217.25;;;10.79;49.96
53246;BME280;39569;51.090;-1.786;2024-03-06T01:23:17;101217.91;;;10.89;49.89
53246;BME280;39569;51.090;-1.786;2024-03-06T01:25:44;101217.25;;;10.79;50.29
53246;BME280;39569;51.090;-1.786;2024-03-06T01:28:11;101218.56;;;10.83;50.17
53246;BME280;39569;51.090;-1.786;2024-03-06T01:30:39;101221.94;;;10.93;50.02
53246;BME280;39569;51.090;-1.786;2024-03-06T01:33:06;101227.03;;;10.62;50.08
53246;BME280;39569;51.090;-1.786;2024-03-06T01:35:32;101227.22;;;10.69;50.29
53246;BME280;39569;51.090;-1.786;2024-03-06T01:37:59;101217.72;;;10.74;49.88
53246;BME280;39569;51.090;-1.786;2024-03-06T01:40:26;101224.06;;;10.73;49.80
53246;BME280;39569;51.090;-1.786;2024-03-06T01:42:54;101223.03;;;10.66;49.95
53246;BME280;39569;51.090;-1.786;2024-03-06T01:45:21;101226.66;;;10.49;50.20
53246;BME280;39569;51.090;-1.786;2024-03-06T01:47:49;101225.09;;;10.80;49.90
53246;BME280;39569;51.090;-1.786;2024-03-06T01:50:16;101220.41;;;10.82;49.70
53246;BME280;39569;51.090;-1.786;2024-03-06T01:52:43;101219.50;;;10.58;49.86
53246;BME280;39569;51.090;-1.786;2024-03-06T01:55:11;101217.69;;;10.66;49.72
53246;BME280;39569;51.090;-1.786;2024-03-06T01:57:39;101219.50;;;10.58;49.80
53246;BME280;39569;51.090;-1.786;2024-03-06T02:00:08;101213.84;;;10.69;49.78
53246;BME280;39569;51.090;-1.786;2024-03-06T02:02:40;101228.84;;;10.54;49.70
53246;BME280;39569;51.090;-1.786;2024-03-06T02:05:08;101227.84;;;10.63;49.71
53246;BME280;39569;51.090;-1.786;2024-03-06T02:07:36;101225.19;;;10.55;49.57
53246;BME280;39569;51.090;-1.786;2024-03-06T02:10:06;101228.66;;;10.47;49.61
53246;BME280;39569;51.090;-1.786;2024-03-06T02:12:33;101230.38;;;10.23;49.76
53246;BME280;39569;51.090;-1.786;2024-03-06T02:15:00;101228.38;;;10.25;49.84
53246;BME280;39569;51.090;-1.786;2024-03-06T02:17:28;101229.22;;;10.25;49.87
53246;BME280;39569;51.090;-1.786;2024-03-06T02:19:56;101223.78;;;10.35;49.80
53246;BME280;39569;51.090;-1.786;2024-03-06T02:22:24;101229.47;;;10.48;49.57
53246;BME280;39569;51.090;-1.786;2024-03-06T02:24:51;101223.72;;;10.27;49.48
53246;BME280;39569;51.090;-1.786;2024-03-06T02:27:18;101221.69;;;10.21;49.65
53246;BME280;39569;51.090;-1.786;2024-03-06T02:29:44;101215.00;;;10.17;49.64
53246;BME280;39569;51.090;-1.786;2024-03-06T02:32:12;101219.41;;;10.34;49.64
53246;BME280;39569;51.090;-1.786;2024-03-06T02:34:40;101211.19;;;10.19;49.61
53246;BME280;39569;51.090;-1.786;2024-03-06T02:37:07;101206.19;;;10.16;49.47
53246;BME280;39569;51.090;-1.786;2024-03-06T02:39:35;101216.88;;;10.24;49.52
53246;BME280;39569;51.090;-1.786;2024-03-06T02:42:01;101217.09;;;10.05;49.63
53246;BME280;39569;51.090;-1.786;2024-03-06T02:44:29;101218.69;;;9.98;49.92
53246;BME280;39569;51.090;-1.786;2024-03-06T02:46:56;101207.34;;;9.96;49.64
53246;BME280;39569;51.090;-1.786;2024-03-06T02:49:22;101206.69;;;9.94;49.93
53246;BME280;39569;51.090;-1.786;2024-03-06T02:51:49;101208.75;;;10.08;49.89
53246;BME280;39569;51.090;-1.786;2024-03-06T02:54:16;101210.91;;;10.05;49.59
53246;BME280;39569;51.090;-1.786;2024-03-06T02:56:44;101203.19;;;10.19;49.71
53246;BME280;39569;51.090;-1.786;2024-03-06T02:59:11;101208.88;;;9.99;49.64
53246;BME280;39569;51.090;-1.786;2024-03-06T03:01:39;101197.00;;;9.93;49.54
53246;BME280;39569;51.090;-1.786;2024-03-06T03:04:05;101200.28;;;9.87;49.70
53246;BME280;39569;51.090;-1.786;2024-03-06T03:06:32;101200.28;;;9.87;50.10
53246;BME280;39569;51.090;-1.786;2024-03-06T03:08:59;101207.31;;;9.88;50.04
53246;BME280;39569;51.090;-1.786;2024-03-06T03:11:26;101200.47;;;9.85;49.91
53246;BME280;39569;51.090;-1.786;2024-03-06T03:13:54;101201.22;;;10.04;50.25
53246;BME280;39569;51.090;-1.786;2024-03-06T03:16:21;101200.69;;;9.92;49.85
53246;BME280;39569;51.090;-1.786;2024-03-06T03:18:48;101197.78;;;9.85;49.85
53246;BME280;39569;51.090;-1.786;2024-03-06T03:21:14;101207.78;;;9.58;50.62
53246;BME280;39569;51.090;-1.786;2024-03-06T03:23:41;101212.41;;;9.73;50.33
53246;BME280;39569;51.090;-1.786;2024-03-06T03:26:08;101213.59;;;9.79;50.66
53246;BME280;39569;51.090;-1.786;2024-03-06T03:28:37;101207.06;;;9.99;50.06
53246;BME280;39569;51.090;-1.786;2024-03-06T03:31:07;101216.47;;;10.11;49.98
53246;BME280;39569;51.090;-1.786;2024-03-06T03:33:34;101215.84;;;9.91;50.07
53246;BME280;39569;51.090;-1.786;2024-03-06T03:36:01;101217.72;;;9.99;49.87
53246;BME280;39569;51.090;-1.786;2024-03-06T03:38:28;101206.53;;;9.96;49.87
53246;BME280;39569;51.090;-1.786;2024-03-06T03:40:55;101207.50;;;9.94;49.90
53246;BME280;39569;51.090;-1.786;2024-03-06T03:43:21;101204.22;;;10.01;49.71
53246;BME280;39569;51.090;-1.786;2024-03-06T03:45:48;101210.22;;;10.03;49.76
53246;BME280;39569;51.090;-1.786;2024-03-06T03:48:16;101203.75;;;10.05;49.85
53246;BME280;39569;51.090;-1.786;2024-03-06T03:50:43;101210.44;;;9.83;50.07
53246;BME280;39569;51.090;-1.786;2024-03-06T03:53:10;101207.50;;;9.86;49.97
53246;BME280;39569;51.090;-1.786;2024-03-06T03:55:36;101213.44;;;9.80;49.82
53246;BME280;39569;51.090;-1.786;2024-03-06T03:58:03;101208.97;;;9.89;50.14
53246;BME280;39569;51.090;-1.786;2024-03-06T04:00:31;101211.97;;;9.86;49.95
53246;BME280;39569;51.090;-1.786;2024-03-06T04:02:58;101208.31;;;9.87;49.85
53246;BME280;39569;51.090;-1.786;2024-03-06T04:05:26;101214.88;;;10.01;50.22
53246;BME280;39569;51.090;-1.786;2024-03-06T04:07:53;101211.28;;;9.84;50.35
53246;BME280;39569;51.090;-1.786;2024-03-06T04:10:19;101219.47;;;9.82;49.99
53246;BME280;39569;51.090;-1.786;2024-03-06T04:12:46;101210.16;;;9.86;50.22
53246;BME280;39569;51.090;-1.786;2024-03-06T04:15:13;101217.66;;;9.91;50.28
53246;BME280;39569;51.090;-1.786;2024-03-06T04:17:39;101213.44;;;9.80;50.98
53246;BME280;39569;51.090;-1.786;2024-03-06T04:20:07;101211.53;;;9.99;50.67
53246;BME280;39569;51.090;-1.786;2024-03-06T04:22:38;101221.00;;;10.19;50.37
53246;BME280;39569;51.090;-1.786;2024-03-06T04:25:05;101219.81;;;10.13;50.36
53246;BME280;39569;51.090;-1.786;2024-03-06T04:27:32;101227.66;;;10.15;49.95
53246;BME280;39569;51.090;-1.786;2024-03-06T04:29:59;101234.59;;;10.08;49.91
53246;BME280;39569;51.090;-1.786;2024-03-06T04:32:26;101237.28;;;9.82;49.90
53246;BME280;39569;51.090;-1.786;2024-03-06T04:34:52;101235.81;;;9.87;50.30
53246;BME280;39569;51.090;-1.786;2024-03-06T04:37:21;101236.25;;;10.01;49.88
53246;BME280;39569;51.090;-1.786;2024-03-06T04:39:49;101245.09;;;9.75;50.83
53246;BME280;39569;51.090;-1.786;2024-03-06T04:42:16;101240.13;;;9.80;50.27
53246;BME280;39569;51.090;-1.786;2024-03-06T04:44:42;101242.63;;;9.56;50.45
53246;BME280;39569;51.090;-1.786;2024-03-06T04:47:09;101238.81;;;9.59;50.21
53246;BME280;39569;51.090;-1.786;2024-03-06T04:49:36;101245.56;;;9.71;49.95
53246;BME280;39569;51.090;-1.786;2024-03-06T04:52:02;101247.94;;;9.56;49.84
53246;BME280;39569;51.090;-1.786;2024-03-06T04:54:29;101246.81;;;9.59;50.00
53246;BME280;39569;51.090;-1.786;2024-03-06T04:56:57;101250.03;;;9.70;50.49
53246;BME280;39569;51.090;-1.786;2024-03-06T04:59:24;101247.34;;;9.62;50.09
53246;BME280;39569;51.090;-1.786;2024-03-06T05:01:51;101253.13;;;9.58;50.26
53246;BME280;39569;51.090;-1.786;2024-03-06T05:04:18;101258.09;;;9.53;50.43
53246;BME280;39569;51.090;-1.786;2024-03-06T05:06:45;101255.78;;;9.58;50.21
53246;BME280;39569;51.090;-1.786;2024-03-06T05:09:12;101259.34;;;9.66;50.07
53246;BME280;39569;51.090;-1.786;2024-03-06T05:11:40;101257.47;;;9.59;50.61
53246;BME280;39569;51.090;-1.786;2024-03-06T05:14:08;101259.03;;;9.69;50.21
53246;BME280;39569;51.090;-1.786;2024-03-06T05:16:35;101264.03;;;9.64;49.64
53246;BME280;39569;51.090;-1.786;2024-03-06T05:19:01;101260.97;;;9.59;49.72
53246;BME280;39569;51.090;-1.786;2024-03-06T05:21:28;101257.56;;;9.49;50.09
53246;BME280;39569;51.090;-1.786;2024-03-06T05:23:55;101262.22;;;9.47;50.23
53246;BME280;39569;51.090;-1.786;2024-03-06T05:26:21;101260.31;;;9.40;50.15
53246;BME280;39569;51.090;-1.786;2024-03-06T05:28:48;101261.72;;;9.52;49.90
53246;BME280;39569;51.090;-1.786;2024-03-06T05:31:19;101263.84;;;9.66;49.93
53246;BME280;39569;51.090;-1.786;2024-03-06T05:33:47;101261.13;;;9.58;49.71
53246;BME280;39569;51.090;-1.786;2024-03-06T05:36:15;101270.06;;;9.49;50.03
53246;BME280;39569;51.090;-1.786;2024-03-06T05:38:42;101261.97;;;9.58;50.15
53246;BME280;39569;51.090;-1.786;2024-03-06T05:41:09;101267.06;;;9.52;49.56
53246;BME280;39569;51.090;-1.786;2024-03-06T05:43:36;101278.50;;;9.44;50.02
53246;BME280;39569;51.090;-1.786;2024-03-06T05:46:03;101277.56;;;9.53;49.65
53246;BME280;39569;51.090;-1.786;2024-03-06T05:48:31;101282.44;;;9.75;49.84
53246;BME280;39569;51.090;-1.786;2024-03-06T05:50:58;101284.50;;;9.46;50.28
53246;BME280;39569;51.090;-1.786;2024-03-06T05:53:25;101290.53;;;9.13;51.51
53246;BME280;39569;51.090;-1.786;2024-03-06T05:55:52;101284.81;;;9.43;49.92
53246;BME280;39569;51.090;-1.786;2024-03-06T05:58:19;101288.34;;;9.44;50.45
53246;BME280;39569;51.090;-1.786;2024-03-06T06:00:46;101290.22;;;9.34;50.57
53246;BME280;39569;51.090;-1.786;2024-03-06T06:03:13;101297.03;;;9.46;50.12
53246;BME280;39569;51.090;-1.786;2024-03-06T06:05:41;101290.44;;;9.75;50.05
53246;BME280;39569;51.090;-1.786;2024-03-06T06:08:08;101291.81;;;9.44;50.27
53246;BME280;39569;51.090;-1.786;2024-03-06T06:10:34;101294.19;;;9.47;49.90
53246;BME280;39569;51.090;-1.786;2024-03-06T06:13:01;101299.00;;;9.44;50.17
53246;BME280;39569;51.090;-1.786;2024-03-06T06:15:30;101299.59;;;9.38;50.51
53246;BME280;39569;51.090;-1.786;2024-03-06T06:17:57;101302.38;;;9.46;50.06
53246;BME280;39569;51.090;-1.786;2024-03-06T06:20:23;101301.78;;;9.42;50.34
53246;BME280;39569;51.090;-1.786;2024-03-06T06:22:52;101305.84;;;9.64;49.93
53246;BME280;39569;51.090;-1.786;2024-03-06T06:25:18;101304.09;;;9.55;50.08
53246;BME280;39569;51.090;-1.786;2024-03-06T06:27:45;101302.25;;;9.73;49.50
53246;BME280;39569;51.090;-1.786;2024-03-06T06:30:14;101312.16;;;9.80;49.44
53246;BME280;39569;51.090;-1.786;2024-03-06T06:32:40;101309.19;;;9.48;50.03
53246;BME280;39569;51.090;-1.786;2024-03-06T06:35:08;101313.59;;;9.75;49.72
53246;BME280;39569;51.090;-1.786;2024-03-06T06:37:36;101317.47;;;9.63;49.88
53246;BME280;39569;51.090;-1.786;2024-03-06T06:40:06;101319.19;;;9.64;50.04
53246;BME280;39569;51.090;-1.786;2024-03-06T06:42:33;101321.47;;;9.59;49.83
53246;BME280;39569;51.090;-1.786;2024-03-06T06:45:00;101321.22;;;9.52;50.14
53246;BME280;39569;51.090;-1.786;2024-03-06T06:47:27;101321.69;;;9.65;49.85
53246;BME280;39569;51.090;-1.786;2024-03-06T06:49:54;101319.03;;;9.65;49.95
53246;BME280;39569;51.090;-1.786;2024-03-06T06:52:20;101313.94;;;9.54;50.27
53246;BME280;39569;51.090;-1.786;2024-03-06T06:54:47;101323.50;;;9.12;50.41
53246;BME280;39569;51.090;-1.786;2024-03-06T06:57:16;101313.13;;;9.09;50.70
53246;BME280;39569;51.090;-1.786;2024-03-06T06:59:43;101307.44;;;9.04;50.33
53246;BME280;39569;51.090;-1.786;2024-03-06T07:02:10;101312.84;;;9.12;49.93
53246;BME280;39569;51.090;-1.786;2024-03-06T07:04:36;101315.44;;;9.39;49.77
53246;BME280;39569;51.090;-1.786;2024-03-06T07:07:03;101324.06;;;9.51;49.82
53246;BME280;39569;51.090;-1.786;2024-03-06T07:09:30;101326.88;;;9.49;50.16
53246;BME280;39569;51.090;-1.786;2024-03-06T07:11:56;101324.28;;;9.57;49.78
53246;BME280;39569;51.090;-1.786;2024-03-06T07:14:24;101320.50;;;9.85;49.84
53246;BME280;39569;51.090;-1.786;2024-03-06T07:16:51;101322.56;;;9.74;49.26
53246;BME280;39569;51.090;-1.786;2024-03-06T07:19:18;101330.38;;;9.67;49.84
53246;BME280;39569;51.090;-1.786;2024-03-06T07:21:45;101333.13;;;9.75;49.67
53246;BME280;39569;51.090;-1.786;2024-03-06T07:24:12;101327.75;;;9.93;49.50
53246;BME280;39569;51.090;-1.786;2024-03-06T07:26:38;101334.28;;;9.99;49.37
53246;BME280;39569;51.090;-1.786;2024-03-06T07:29:05;101330.69;;;10.08;49.17
53246;BME280;39569;51.090;-1.786;2024-03-06T07:31:40;101328.28;;;10.14;49.10
53246;BME280;39569;51.090;-1.786;2024-03-06T07:34:07;101329.47;;;10.02;48.88
53246;BME280;39569;51.090;-1.786;2024-03-06T07:36:33;101334.81;;;10.02;48.77
53246;BME280;39569;51.090;-1.786;2024-03-06T07:39:00;101334.91;;;9.92;48.80
53246;BME280;39569;51.090;-1.786;2024-03-06T07:41:27;101339.63;;;10.16;48.91
53246;BME280;39569;51.090;-1.786;2024-03-06T07:43:54;101332.97;;;10.03;49.27
53246;BME280;39569;51.090;-1.786;2024-03-06T07:46:20;101338.00;;;10.23;48.60
53246;BME280;39569;51.090;-1.786;2024-03-06T07:48:48;101344.53;;;10.29;49.24
53246;BME280;39569;51.090;-1.786;2024-03-06T07:51:16;101345.47;;;10.45;48.52
53246;BME280;39569;51.090;-1.786;2024-03-06T07:53:43;101356.72;;;10.31;48.65
53246;BME280;39569;51.090;-1.786;2024-03-06T07:56:10;101350.19;;;10.51;48.39
53246;BME280;39569;51.090;-1.786;2024-03-06T07:58:38;101353.91;;;10.58;48.37
53246;BME280;39569;51.090;-1.786;2024-03-06T08:01:05;101351.22;;;10.58;48.16
53246;BME280;39569;51.090;-1.786;2024-03-06T08:03:33;101360.19;;;10.49;48.49
53246;BME280;39569;51.090;-1.786;2024-03-06T08:06:01;101363.69;;;10.50;48.10
53246;BME280;39569;51.090;-1.786;2024-03-06T08:08:29;101375.94;;;10.60;48.18
53246;BME280;39569;51.090;-1.786;2024-03-06T08:10:55;101376.47;;;10.72;48.34
53246;BME280;39569;51.090;-1.786;2024-03-06T08:13:22;101372.34;;;10.77;47.82
53246;BME280;39569;51.090;-1.786;2024-03-06T08:15:49;101356.34;;;11.27;47.52
53246;BME280;39569;51.090;-1.786;2024-03-06T08:18:16;101366.38;;;11.25;47.35
53246;BME280;39569;51.090;-1.786;2024-03-06T08:20:43;101371.72;;;11.33;47.62
53246;BME280;39569;51.090;-1.786;2024-03-06T08:23:11;101365.09;;;11.61;47.25
53246;BME280;39569;51.090;-1.786;2024-03-06T08:25:38;101361.38;;;11.46;47.30
53246;BME280;39569;51.090;-1.786;2024-03-06T08:28:05;101354.22;;;11.63;47.63
53246;BME280;39569;51.090;-1.786;2024-03-06T08:30:32;101358.94;;;11.85;46.79
53246;BME280;39569;51.090;-1.786;2024-03-06T08:32:59;101367.97;;;11.84;47.17
53246;BME280;39569;51.090;-1.786;2024-03-06T08:35:26;101367.66;;;12.03;46.56
53246;BME280;39569;51.090;-1.786;2024-03-06T08:37:52;101371.50;;;12.01;46.37
53246;BME280;39569;51.090;-1.786;2024-03-06T08:40:20;101369.75;;;12.48;46.31
53246;BME280;39569;51.090;-1.786;2024-03-06T08:42:48;101373.00;;;12.27;46.71
53246;BME280;39569;51.090;-1.786;2024-03-06T08:45:15;101374.72;;;12.67;46.03
53246;BME280;39569;51.090;-1.786;2024-03-06T08:47:43;101365.63;;;12.92;45.49
53246;BME280;39569;51.090;-1.786;2024-03-06T08:50:10;101373.00;;;12.82;45.77
53246;BME280;39569;51.090;-1.786;2024-03-06T08:52:37;101370.81;;;12.31;46.90
53246;BME280;39569;51.090;-1.786;2024-03-06T08:55:05;101381.84;;;12.99;45.60
53246;BME280;39569;51.090;-1.786;2024-03-06T08:57:32;101367.31;;;13.54;44.96
53246;BME280;39569;51.090;-1.786;2024-03-06T08:59:59;101373.19;;;13.80;44.74
53246;BME280;39569;51.090;-1.786;2024-03-06T09:02:26;101372.78;;;14.29;44.06
53246;BME280;39569;51.090;-1.786;2024-03-06T09:04:53;101378.53;;;14.40;44.33
53246;BME280;39569;51.090;-1.786;2024-03-06T09:07:20;101377.13;;;14.30;44.22
53246;BME280;39569;51.090;-1.786;2024-03-06T09:09:49;101384.22;;;14.60;44.27
53246;BME280;39569;51.090;-1.786;2024-03-06T09:12:15;101376.84;;;15.41;42.30
53246;BME280;39569;51.090;-1.786;2024-03-06T09:14:44;101386.81;;;16.25;40.97
53246;BME280;39569;51.090;-1.786;2024-03-06T09:17:11;101387.81;;;16.24;41.33
53246;BME280;39569;51.090;-1.786;2024-03-06T09:19:40;101384.47;;;16.22;41.64
53246;BME280;39569;51.090;-1.786;2024-03-06T09:22:07;101387.81;;;16.24;41.76
53246;BME280;39569;51.090;-1.786;2024-03-06T09:24:34;101390.84;;;16.15;42.14
53246;BME280;39569;51.090;-1.786;2024-03-06T09:27:03;101390.63;;;16.37;42.04
53246;BME280;39569;51.090;-1.786;2024-03-06T09:29:30;101397.00;;;16.09;42.08
53246;BME280;39569;51.090;-1.786;2024-03-06T09:31:58;101391.25;;;16.12;42.37
53246;BME280;39569;51.090;-1.786;2024-03-06T09:34:26;101389.78;;;16.58;42.13
53246;BME280;39569;51.090;-1.786;2024-03-06T09:36:52;101396.78;;;16.87;41.95
53246;BME280;39569;51.090;-1.786;2024-03-06T09:39:19;101389.91;;;17.18;41.32
53246;BME280;39569;51.090;-1.786;2024-03-06T09:41:48;101389.44;;;17.55;41.31
53246;BME280;39569;51.090;-1.786;2024-03-06T09:44:16;101386.94;;;17.60;40.71
53246;BME280;39569;51.090;-1.786;2024-03-06T09:46:44;101400.69;;;17.65;40.70
53246;BME280;39569;51.090;-1.786;2024-03-06T09:49:14;101396.53;;;17.56;40.67
53246;BME280;39569;51.090;-1.786;2024-03-06T09:51:43;101396.59;;;17.96;39.53
53246;BME280;39569;51.090;-1.786;2024-03-06T09:54:12;101404.72;;;17.29;40.10
53246;BME280;39569;51.090;-1.786;2024-03-06T09:56:41;101406.56;;;17.28;41.06
53246;BME280;39569;51.090;-1.786;2024-03-06T09:59:08;101411.03;;;17.08;41.76
53246;BME280;39569;51.090;-1.786;2024-03-06T10:01:39;101413.25;;;16.92;43.02
53246;BME280;39569;51.090;-1.786;2024-03-06T10:04:21;101408.28;;;18.16;40.54
53246;BME280;39569;51.090;-1.786;2024-03-06T10:06:49;101409.94;;;18.49;40.09
53246;BME280;39569;51.090;-1.786;2024-03-06T10:09:17;101408.03;;;18.89;39.22
53246;BME280;39569;51.090;-1.786;2024-03-06T10:11:44;101398.94;;;19.79;38.39
53246;BME280;39569;51.090;-1.786;2024-03-06T10:14:10;101411.16;;;19.50;38.55
53246;BME280;39569;51.090;-1.786;2024-03-06T10:16:37;101413.03;;;19.49;38.88
53246;BME280;39569;51.090;-1.786;2024-03-06T10:19:17;101411.00;;;18.61;40.36
53246;BME280;39569;51.090;-1.786;2024-03-06T10:21:46;101420.09;;;18.93;39.83
53246;BME280;39569;51.090;-1.786;2024-03-06T10:24:18;101412.03;;;19.44;39.23
53246;BME280;39569;51.090;-1.786;2024-03-06T10:26:45;101414.34;;;19.27;39.27
53246;BME280;39569;51.090;-1.786;2024-03-06T10:29:15;101415.50;;;19.64;39.18
53246;BME280;39569;51.090;-1.786;2024-03-06T10:31:47;101409.50;;;20.18;38.62
53246;BME280;39569;51.090;-1.786;2024-03-06T10:34:14;101419.75;;;20.16;38.39
53246;BME280;39569;51.090;-1.786;2024-03-06T10:36:42;101415.63;;;20.38;37.92
53246;BME280;39569;51.090;-1.786;2024-03-06T10:39:11;101413.56;;;20.33;38.44
53246;BME280;39569;51.090;-1.786;2024-03-06T10:41:40;101413.56;;;20.58;38.22
53246;BME280;39569;51.090;-1.786;2024-03-06T10:44:10;101416.88;;;22.28;35.79
53246;BME280;39569;51.090;-1.786;2024-03-06T10:46:40;101401.66;;;24.70;32.18
53246;BME280;39569;51.090;-1.786;2024-03-06T10:49:10;101400.50;;;26.17;30.34
53246;BME280;39569;51.090;-1.786;2024-03-06T10:51:40;101394.06;;;26.34;29.00
53246;BME280;39569;51.090;-1.786;2024-03-06T10:54:10;101401.22;;;27.23;30.07
53246;BME280;39569;51.090;-1.786;2024-03-06T10:56:39;101401.38;;;27.63;28.19
53246;BME280;39569;51.090;-1.786;2024-03-06T10:59:10;101397.81;;;27.68;28.62
53246;BME280;39569;51.090;-1.786;2024-03-06T11:01:39;101398.19;;;28.67;28.72
53246;BME280;39569;51.090;-1.786;2024-03-06T11:04:06;101397.53;;;29.15;25.62
53246;BME280;39569;51.090;-1.786;2024-03-06T11:06:33;101392.72;;;30.33;26.41
53246;BME280;39569;51.090;-1.786;2024-03-06T11:09:01;101397.38;;;31.61;25.53
53246;BME280;39569;51.090;-1.786;2024-03-06T11:11:30;101389.53;;;32.05;23.01
53246;BME280;39569;51.090;-1.786;2024-03-06T11:14:00;101384.03;;;32.37;24.51
53246;BME280;39569;51.090;-1.786;2024-03-06T11:16:28;101383.50;;;32.81;23.12
53246;BME280;39569;51.090;-1.786;2024-03-06T11:19:05;101386.31;;;31.42;22.95
53246;BME280;39569;51.090;-1.786;2024-03-06T11:21:33;101391.00;;;31.42;23.36
53246;BME280;39569;51.090;-1.786;2024-03-06T11:24:19;101388.19;;;32.21;22.66
53246;BME280;39569;51.090;-1.786;2024-03-06T11:26:49;101389.63;;;32.51;23.63
53246;BME280;39569;51.090;-1.786;2024-03-06T11:29:16;101386.84;;;32.19;21.89
53246;BME280;39569;51.090;-1.786;2024-03-06T11:32:04;101379.19;;;33.43;22.60
53246;BME280;39569;51.090;-1.786;2024-03-06T11:34:33;101380.66;;;33.00;21.03
53246;BME280;39569;51.090;-1.786;2024-03-06T11:37:02;101383.78;;;33.74;20.81
53246;BME280;39569;51.090;-1.786;2024-03-06T11:39:33;101394.22;;;33.28;21.23
53246;BME280;39569;51.090;-1.786;2024-03-06T11:42:03;101383.00;;;32.93;21.85
53246;BME280;39569;51.090;-1.786;2024-03-06T11:44:34;101391.28;;;30.69;24.65
53246;BME280;39569;51.090;-1.786;2024-03-06T11:47:02;101392.88;;;29.64;23.90
53246;BME280;39569;51.090;-1.786;2024-03-06T11:49:31;101391.75;;;31.90;23.50
53246;BME280;39569;51.090;-1.786;2024-03-06T11:52:00;101387.81;;;31.72;21.67
53246;BME280;39569;51.090;-1.786;2024-03-06T11:54:27;101383.72;;;31.69;21.97
53246;BME280;39569;51.090;-1.786;2024-03-06T11:56:55;101383.75;;;33.12;21.16
53246;BME280;39569;51.090;-1.786;2024-03-06T11:59:24;101381.28;;;32.97;19.92
53246;BME280;39569;51.090;-1.786;2024-03-06T12:01:51;101381.78;;;31.28;21.67
53246;BME280;39569;51.090;-1.786;2024-03-06T12:04:19;101389.38;;;29.54;22.23
53246;BME280;39569;51.090;-1.786;2024-03-06T12:06:47;101392.09;;;29.59;23.88
53246;BME280;39569;51.090;-1.786;2024-03-06T12:09:15;101384.38;;;30.95;23.49
53246;BME280;39569;51.090;-1.786;2024-03-06T12:11:42;101395.03;;;26.91;27.47
53246;BME280;39569;51.090;-1.786;2024-03-06T12:14:13;101397.88;;;29.57;24.39
53246;BME280;39569;51.090;-1.786;2024-03-06T12:16:41;101377.72;;;31.20;22.91
53246;BME280;39569;51.090;-1.786;2024-03-06T12:19:08;101378.47;;;32.05;21.47
53246;BME280;39569;51.090;-1.786;2024-03-06T12:21:36;101372.13;;;32.37;20.03
53246;BME280;39569;51.090;-1.786;2024-03-06T12:24:04;101370.88;;;31.97;21.79
53246;BME280;39569;51.090;-1.786;2024-03-06T12:26:30;101389.19;;;31.93;20.19
53246;BME280;39569;51.090;-1.786;2024-03-06T12:29:04;101380.97;;;29.84;23.61
53246;BME280;39569;51.090;-1.786;2024-03-06T12:31:31;101384.03;;;27.48;25.18
53246;BME280;39569;51.090;-1.786;2024-03-06T12:34:00;101386.56;;;28.90;23.54
53246;BME280;39569;51.090;-1.786;2024-03-06T12:36:28;101366.16;;;30.42;22.56
53246;BME280;39569;51.090;-1.786;2024-03-06T12:38:56;101378.16;;;31.88;20.84
53246;BME280;39569;51.090;-1.786;2024-03-06T12:41:25;101364.03;;;32.72;20.43
53246;BME280;39569;51.090;-1.786;2024-03-06T12:43:53;101369.56;;;33.54;18.94
53246;BME280;39569;51.090;-1.786;2024-03-06T12:46:21;101374.88;;;32.82;19.37